createdAt,value
2018-06-28T00:01:34.337Z,1.77
2018-06-28T00:04:02.117Z,1.90
2018-06-28T00:06:29.925Z,2.10
2018-06-28T00:08:57.707Z,1.73
2018-06-28T00:11:25.575Z,1.60
2018-06-28T00:13:53.397Z,1.83
2018-06-28T00:16:21.152Z,1.70
2018-06-28T00:18:48.962Z,2.30
2018-06-28T00:21:16.800Z,1.97
2018-06-28T00:23:44.660Z,2.23
2018-06-28T00:26:12.422Z,2.20
2018-06-28T00:28:40.283Z,1.87
2018-06-28T00:31:08.058Z,2.20
2018-06-28T00:33:35.814Z,1.80
2018-06-28T00:36:03.536Z,1.93
2018-06-28T00:38:31.257Z,1.90
2018-06-28T00:40:59.110Z,1.73
2018-06-28T00:43:26.946Z,2.03
2018-06-28T00:45:54.669Z,1.87
2018-06-28T00:48:22.410Z,1.90
2018-06-28T00:50:50.186Z,2.27
2018-06-28T00:53:17.772Z,2.03
2018-06-28T00:55:45.443Z,2.50
2018-06-28T00:58:13.079Z,1.90
2018-06-28T01:01:10.880Z,2.00
2018-06-28T01:03:38.389Z,1.90
2018-06-28T01:06:05.970Z,1.70
2018-06-28T01:09:13.531Z,1.80
2018-06-28T01:11:41.540Z,2.20
2018-06-28T01:14:09.136Z,2.00
2018-06-28T01:16:37.164Z,2.10
2018-06-28T01:19:44.764Z,2.20
2018-06-28T01:22:12.461Z,2.00
2018-06-28T01:24:40.003Z,1.97
2018-06-28T01:27:07.599Z,2.50
2018-06-28T01:36:17.400Z,1.60
2018-06-28T01:38:44.955Z,1.60
2018-06-28T01:41:12.562Z,1.63
2018-06-28T01:43:44.149Z,2.10
2018-06-28T01:46:12.005Z,1.60
2018-06-28T01:48:39.813Z,1.80
2018-06-28T01:51:07.430Z,2.00
2018-06-28T01:53:34.978Z,1.73
2018-06-28T01:56:02.623Z,2.00
2018-06-28T01:58:30.207Z,1.83
2018-06-28T02:00:57.921Z,1.70
2018-06-28T02:03:25.514Z,1.93
2018-06-28T02:05:53.869Z,1.67
2018-06-28T02:08:21.733Z,1.60
2018-06-28T02:10:49.340Z,2.20
2018-06-28T02:13:17.279Z,1.80
2018-06-28T02:15:44.841Z,1.77
2018-06-28T02:18:12.424Z,2.10
2018-06-28T02:27:22.748Z,1.30
2018-06-28T02:29:50.315Z,1.57
2018-06-28T02:32:17.911Z,1.33
2018-06-28T02:34:45.474Z,1.07
2018-06-28T02:37:13.089Z,1.33
2018-06-28T02:39:40.751Z,1.67
2018-06-28T02:42:08.378Z,1.33
2018-06-28T02:44:35.907Z,1.13
2018-06-28T02:47:03.596Z,1.10
2018-06-28T02:50:11.199Z,1.17
2018-06-28T02:52:38.771Z,1.40
2018-06-28T02:55:06.330Z,1.40
2018-06-28T02:57:33.947Z,1.40
2018-06-28T03:03:22.433Z,1.20
2018-06-28T03:05:50.119Z,1.60
2018-06-28T03:08:17.743Z,1.00
2018-06-28T03:10:45.349Z,1.23
2018-06-28T03:13:12.895Z,1.30
2018-06-28T03:15:40.463Z,1.07
2018-06-28T03:18:08.192Z,1.20
2018-06-28T03:20:35.811Z,0.90
2018-06-28T03:23:03.444Z,1.17
2018-06-28T03:25:31.026Z,1.00
2018-06-28T03:27:58.622Z,0.90
2018-06-28T03:30:26.295Z,1.00
2018-06-28T03:32:53.892Z,1.20
2018-06-28T03:35:21.467Z,1.00
2018-06-28T03:37:49.165Z,0.80
2018-06-28T03:40:16.782Z,0.93
2018-06-28T03:42:44.371Z,1.00
2018-06-28T03:45:11.983Z,1.00
2018-06-28T03:47:39.567Z,1.00
2018-06-28T03:50:20.079Z,0.97
2018-06-28T03:52:47.659Z,1.73
2018-06-28T03:55:15.226Z,1.00
2018-06-28T03:57:42.825Z,0.90
2018-06-28T04:00:10.431Z,1.00
2018-06-28T04:02:38.039Z,0.93
2018-06-28T04:05:05.692Z,0.90
2018-06-28T04:07:33.359Z,0.90
2018-06-28T04:10:06.033Z,1.00
2018-06-28T04:12:33.635Z,1.47
2018-06-28T04:15:01.236Z,0.90
2018-06-28T04:17:28.783Z,1.13
2018-06-28T04:23:17.591Z,1.00
2018-06-28T04:25:45.187Z,1.07
2018-06-28T04:28:12.921Z,1.00
2018-06-28T04:30:40.488Z,1.17
2018-06-28T04:33:08.048Z,1.27
2018-06-28T04:35:35.653Z,1.10
2018-06-28T04:38:03.219Z,0.93
2018-06-28T04:40:30.889Z,1.13
2018-06-28T04:42:58.455Z,1.10
2018-06-28T04:45:26.003Z,1.10
2018-06-28T04:47:53.630Z,1.20
2018-06-28T04:50:21.216Z,1.10
2018-06-28T04:52:48.791Z,1.30
2018-06-28T04:55:16.347Z,1.20
2018-06-28T04:57:43.923Z,1.23
2018-06-28T05:00:11.571Z,1.10
2018-06-28T05:02:39.219Z,1.50
2018-06-28T05:05:07.114Z,0.87
2018-06-28T05:07:34.687Z,1.80
2018-06-28T05:10:16.711Z,1.10
2018-06-28T05:12:44.295Z,1.20
2018-06-28T05:15:11.917Z,1.40
2018-06-28T05:17:39.643Z,1.40
2018-06-28T05:20:07.219Z,1.33
2018-06-28T05:22:34.839Z,1.10
2018-06-28T05:25:03.010Z,1.10
2018-06-28T05:27:30.591Z,1.40
2018-06-28T05:33:19.019Z,1.37
2018-06-28T05:35:46.627Z,1.10
2018-06-28T05:38:14.183Z,1.93
2018-06-28T05:40:41.795Z,1.10
2018-06-28T05:43:09.427Z,1.80
2018-06-28T05:45:37.069Z,1.37
2018-06-28T05:48:04.652Z,1.33
2018-06-28T05:50:32.233Z,1.23
2018-06-28T05:52:59.834Z,1.37
2018-06-28T05:55:27.451Z,1.43
2018-06-28T05:57:55.019Z,1.30
2018-06-28T06:00:22.571Z,1.50
2018-06-28T06:02:50.164Z,1.10
2018-06-28T06:05:17.735Z,1.67
2018-06-28T06:07:45.298Z,1.30
2018-06-28T06:10:13.101Z,1.30
2018-06-28T06:12:40.627Z,1.60
2018-06-28T06:15:08.273Z,1.03
2018-06-28T06:17:35.935Z,1.83
2018-06-28T06:36:48.710Z,1.87
2018-06-28T06:45:58.557Z,1.87
2018-06-28T06:48:26.096Z,1.40
2018-06-28T06:50:53.709Z,2.00
2018-06-28T06:53:21.336Z,1.40
2018-06-28T06:55:48.931Z,1.20
2018-06-28T06:58:16.556Z,1.53
2018-06-28T07:01:32.533Z,1.37
2018-06-28T07:04:00.159Z,1.17
2018-06-28T07:06:27.720Z,1.20
2018-06-28T07:08:55.263Z,1.50
2018-06-28T07:11:23.332Z,1.33
2018-06-28T07:13:50.935Z,1.40
2018-06-28T07:16:18.659Z,1.00
2018-06-28T07:18:46.274Z,1.30
2018-06-28T07:21:13.851Z,0.97
2018-06-28T07:23:41.504Z,1.00
2018-06-28T07:26:09.153Z,1.10
2018-06-28T07:35:19.109Z,1.40
2018-06-28T07:37:46.724Z,1.30
2018-06-28T07:40:14.404Z,1.10
2018-06-28T07:42:42.112Z,1.20
2018-06-28T07:45:09.745Z,1.10
2018-06-28T07:47:37.450Z,1.40
2018-06-28T07:50:05.702Z,1.70
2018-06-28T07:52:33.300Z,1.20
2018-06-28T07:55:01.124Z,1.00
2018-06-28T07:57:28.771Z,0.80
2018-06-28T08:03:37.208Z,1.23
2018-06-28T08:06:04.995Z,1.23
2018-06-28T08:08:32.701Z,1.10
2018-06-28T08:11:00.291Z,1.00
2018-06-28T08:13:27.969Z,1.10
2018-06-28T08:15:55.608Z,0.83
2018-06-28T08:18:23.208Z,1.27
2018-06-28T08:20:50.895Z,1.60
2018-06-28T08:23:18.484Z,1.20
2018-06-28T08:25:46.135Z,1.50
2018-06-28T08:28:13.794Z,1.10
2018-06-28T08:34:33.572Z,0.90
2018-06-28T08:37:01.205Z,1.00
2018-06-28T08:46:11.239Z,1.20
2018-06-28T08:48:38.876Z,1.07
2018-06-28T08:51:06.969Z,1.13
2018-06-28T08:53:34.566Z,1.00
2018-06-28T08:56:02.146Z,1.13
2018-06-28T08:58:29.866Z,1.40
2018-06-28T09:00:57.531Z,1.30
2018-06-28T09:03:25.180Z,0.80
2018-06-28T09:05:52.862Z,0.83
2018-06-28T09:08:20.532Z,1.33
2018-06-28T09:10:48.241Z,1.00
2018-06-28T09:13:15.896Z,1.00
2018-06-28T09:15:43.503Z,0.90
2018-06-28T09:18:11.221Z,1.23
2018-06-28T09:37:24.625Z,1.20
2018-06-28T09:39:52.297Z,1.27
2018-06-28T09:42:19.904Z,1.13
2018-06-28T09:44:47.591Z,0.90
2018-06-28T09:47:15.278Z,0.90
2018-06-28T09:49:42.927Z,0.73
2018-06-28T09:52:10.590Z,1.17
2018-06-28T09:54:38.311Z,1.20
2018-06-28T09:57:05.899Z,1.20
2018-06-28T10:12:58.004Z,1.20
2018-06-28T10:15:25.634Z,0.70
2018-06-28T10:17:53.344Z,0.83
2018-06-28T10:20:20.962Z,0.83
2018-06-28T10:22:48.642Z,0.80
2018-06-28T10:25:16.344Z,0.70
2018-06-28T10:27:44.069Z,1.37
2018-06-28T10:33:33.331Z,1.00
2018-06-28T10:36:01.012Z,0.93
2018-06-28T10:38:28.654Z,1.40
2018-06-28T10:40:56.330Z,0.70
2018-06-28T10:43:23.960Z,1.00
2018-06-28T10:45:51.544Z,0.83
2018-06-28T10:48:19.156Z,1.17
2018-06-28T10:50:46.881Z,0.87
2018-06-28T10:53:14.490Z,1.13
2018-06-28T10:55:42.133Z,0.97
2018-06-28T10:58:09.928Z,0.93
2018-06-28T11:00:51.899Z,1.23
2018-06-28T11:03:19.528Z,1.00
2018-06-28T11:05:47.118Z,0.70
2018-06-28T11:08:14.811Z,0.93
2018-06-28T11:10:42.412Z,1.13
2018-06-28T11:13:10.047Z,0.90
2018-06-28T11:15:37.743Z,1.13
2018-06-28T11:18:05.293Z,0.90
2018-06-28T11:20:32.945Z,1.60
2018-06-28T11:23:00.594Z,0.80
2018-06-28T11:25:28.192Z,0.80
2018-06-28T11:27:55.836Z,0.80
2018-06-28T11:37:50.179Z,0.77
2018-06-28T11:43:39.415Z,0.90
2018-06-28T11:46:07.076Z,0.93
2018-06-28T11:55:56.796Z,0.90
2018-06-28T11:58:24.367Z,1.80
2018-06-28T12:00:52.076Z,1.10
2018-06-28T12:03:19.768Z,0.53
2018-06-28T12:05:47.695Z,1.30
2018-06-28T12:08:15.287Z,1.00
2018-06-28T12:10:42.885Z,0.93
2018-06-28T12:13:10.517Z,1.00
2018-06-28T12:15:38.191Z,0.60
2018-06-28T12:18:05.792Z,1.17
2018-06-28T12:20:33.544Z,0.80
2018-06-28T12:23:01.175Z,2.17
2018-06-28T12:25:28.731Z,1.37
2018-06-28T12:27:56.340Z,0.90
2018-06-28T12:37:06.927Z,1.23
2018-06-28T12:39:34.495Z,1.20
2018-06-28T12:42:02.030Z,1.03
2018-06-28T12:44:29.604Z,1.00
2018-06-28T12:49:05.837Z,1.20
2018-06-28T12:51:44.943Z,0.90
2018-06-28T12:54:12.566Z,1.07
2018-06-28T12:56:41.384Z,0.90
2018-06-28T13:12:34.975Z,1.53
2018-06-28T13:15:02.617Z,1.30
2018-06-28T13:17:30.279Z,1.00
2018-06-28T13:20:17.350Z,1.00
2018-06-28T13:22:44.989Z,1.10
2018-06-28T13:25:12.596Z,1.20
2018-06-28T13:27:40.203Z,1.13
2018-06-28T13:30:08.837Z,1.60
2018-06-28T13:32:36.435Z,1.30
2018-06-28T13:35:04.114Z,1.43
2018-06-28T13:37:31.631Z,1.27
2018-06-28T13:40:43.802Z,1.30
2018-06-28T13:43:11.622Z,1.40
2018-06-28T13:45:39.279Z,1.27
2018-06-28T13:48:06.848Z,1.63
2018-06-28T13:50:34.537Z,1.60
2018-06-28T13:53:02.139Z,1.40
2018-06-28T13:55:29.744Z,1.40
2018-06-28T13:57:57.368Z,1.23
2018-06-28T14:00:25.021Z,1.30
2018-06-28T14:02:52.661Z,1.27
2018-06-28T14:05:20.353Z,1.20
2018-06-28T14:07:48.004Z,1.07
2018-06-28T14:14:05.419Z,1.47
2018-06-28T14:16:33.080Z,1.20
2018-06-28T14:25:43.458Z,1.57
2018-06-28T14:28:11.128Z,1.20
2018-06-28T14:37:21.239Z,1.33
2018-06-28T14:39:48.884Z,1.27
2018-06-28T14:42:16.526Z,1.57
2018-06-28T14:44:44.051Z,1.57
2018-06-28T14:47:11.664Z,1.53
2018-06-28T14:49:39.406Z,1.50
2018-06-28T14:52:07.091Z,1.13
2018-06-28T14:54:34.857Z,1.17
2018-06-28T14:57:02.500Z,1.73
2018-06-28T14:59:30.092Z,1.30
2018-06-28T15:01:57.736Z,1.30
2018-06-28T15:04:25.355Z,1.37
2018-06-28T15:06:52.965Z,1.37
2018-06-28T15:09:20.651Z,1.10
2018-06-28T15:11:48.299Z,1.07
2018-06-28T15:14:15.876Z,1.30
2018-06-28T15:16:43.524Z,1.43
2018-06-28T15:19:11.158Z,1.47
2018-06-28T15:21:38.804Z,1.50
2018-06-28T15:24:06.449Z,1.13
2018-06-28T15:26:34.148Z,1.47
2018-06-28T15:53:12.766Z,1.60
2018-06-28T15:55:40.383Z,1.47
2018-06-28T15:58:08.077Z,2.50
2018-06-28T16:00:35.725Z,1.27
2018-06-28T16:03:03.366Z,1.53
2018-06-28T16:05:31.067Z,1.67
2018-06-28T16:07:58.715Z,1.70
2018-06-28T16:17:07.976Z,1.40
2018-06-28T16:19:35.777Z,1.47
2018-06-28T16:22:03.443Z,1.70
2018-06-28T16:24:31.127Z,1.67
2018-06-28T16:26:58.831Z,1.50
2018-06-28T16:29:26.431Z,1.70
2018-06-28T16:31:54.099Z,1.90
2018-06-28T16:34:21.703Z,1.87
2018-06-28T16:36:49.352Z,1.90
2018-06-28T16:46:13.971Z,2.30
2018-06-28T16:59:10.551Z,1.67
2018-06-28T17:01:38.268Z,2.10
2018-06-28T17:04:05.951Z,1.63
2018-06-28T17:06:33.599Z,2.40
2018-06-28T17:19:45.227Z,2.20
2018-06-28T17:22:12.980Z,2.10
2018-06-28T17:24:40.677Z,1.80
2018-06-28T17:27:08.380Z,1.90
2018-06-28T17:29:36.152Z,2.00
2018-06-28T17:32:04.020Z,2.43
2018-06-28T17:34:31.730Z,2.00
2018-06-28T17:36:59.423Z,1.87
2018-06-28T17:39:27.135Z,1.90
2018-06-28T17:41:54.823Z,2.53
2018-06-28T17:44:22.457Z,1.97
2018-06-28T17:46:50.279Z,2.40
2018-06-28T18:06:07.910Z,2.33
2018-06-28T18:08:35.644Z,2.27
2018-06-28T18:11:03.306Z,2.13
2018-06-28T18:13:31.749Z,2.03
2018-06-28T18:15:59.415Z,2.20
2018-06-28T18:18:27.053Z,1.70
2018-06-28T18:20:54.860Z,2.27
2018-06-28T18:23:22.979Z,2.10
2018-06-28T18:25:51.308Z,1.90
2018-06-28T18:28:18.975Z,2.03
2018-06-28T18:40:50.404Z,1.70
2018-06-28T18:43:18.732Z,1.60
2018-06-28T18:45:46.403Z,1.83
2018-06-28T18:48:14.042Z,2.07
2018-06-28T18:57:38.405Z,1.67
2018-06-28T19:17:14.894Z,1.70
2018-06-28T19:19:42.523Z,1.50
2018-06-28T19:22:15.615Z,1.70
2018-06-28T19:24:43.187Z,1.77
2018-06-28T19:27:10.757Z,1.77
2018-06-28T19:29:44.054Z,2.40
2018-06-28T19:32:17.272Z,1.40
2018-06-28T19:34:44.871Z,1.60
2018-06-28T19:37:18.193Z,1.60
2018-06-28T19:39:51.312Z,1.50
2018-06-28T19:42:24.477Z,1.60
2018-06-28T19:44:52.089Z,1.43
2018-06-28T19:47:19.687Z,1.73
2018-06-28T19:49:52.741Z,1.77
2018-06-28T19:52:26.037Z,1.53
2018-06-28T19:54:53.607Z,2.00
2018-06-28T19:57:21.125Z,1.27
2018-06-28T19:59:48.707Z,1.80
2018-06-28T20:02:22.254Z,1.60
2018-06-28T20:04:49.814Z,1.70
2018-06-28T20:07:17.300Z,2.07
2018-06-28T20:09:44.911Z,1.90
2018-06-28T20:12:17.925Z,1.97
2018-06-28T20:14:50.896Z,1.63
2018-06-28T20:17:24.155Z,1.77
2018-06-28T20:19:57.374Z,1.73
2018-06-28T20:22:24.867Z,1.70
2018-06-28T20:24:52.383Z,1.93
2018-06-28T20:27:25.437Z,1.90
2018-06-28T20:29:58.467Z,1.67
2018-06-28T20:32:31.783Z,2.00
2018-06-28T20:34:59.284Z,1.80
2018-06-28T20:37:26.811Z,2.10
2018-06-28T20:39:54.367Z,2.10
2018-06-28T20:42:21.902Z,2.43
2018-06-28T20:44:49.403Z,2.07
2018-06-28T20:47:16.902Z,3.10
2018-06-28T20:49:44.549Z,2.30
2018-06-28T20:52:12.075Z,2.70
2018-06-28T20:54:39.603Z,1.80
2018-06-28T20:57:07.434Z,2.20
2018-06-28T20:59:34.946Z,2.50
2018-06-28T21:02:02.444Z,2.20
2018-06-28T21:04:29.970Z,2.40
2018-06-28T21:06:57.495Z,1.77
2018-06-28T21:09:25.134Z,2.17
2018-06-28T21:11:52.654Z,2.40
2018-06-28T21:14:20.202Z,2.13
2018-06-28T21:16:47.744Z,1.50
2018-06-28T21:19:15.290Z,1.17
2018-06-28T21:21:42.839Z,0.87
2018-06-28T21:24:10.357Z,0.50
2018-06-28T21:26:37.856Z,0.50
2018-06-28T21:29:05.390Z,0.50
2018-06-28T21:31:32.882Z,0.50
2018-06-28T21:34:00.525Z,0.50
2018-06-28T21:36:28.002Z,0.20
2018-06-28T21:38:55.504Z,0.30
2018-06-28T21:41:23.047Z,0.40
2018-06-28T21:43:50.559Z,0.20
2018-06-28T21:46:18.063Z,0.20
2018-06-28T21:48:45.610Z,0.20
2018-06-28T21:51:13.323Z,0.20
2018-06-28T21:53:40.799Z,0.10
2018-06-28T21:56:08.311Z,0.20
2018-06-28T21:58:35.873Z,0.10
2018-06-28T22:01:03.351Z,0.00
2018-06-28T22:03:30.849Z,0.17
2018-06-28T22:05:58.408Z,0.10
2018-06-28T22:08:25.903Z,0.10
2018-06-28T22:10:53.391Z,0.07
2018-06-28T22:13:20.947Z,0.00
2018-06-28T22:15:48.435Z,0.10
2018-06-28T22:18:15.929Z,0.00
2018-06-28T22:20:43.497Z,0.10
2018-06-28T22:23:11.002Z,0.17
2018-06-28T22:25:38.516Z,0.20
2018-06-28T22:28:06.080Z,0.10
2018-06-28T22:30:33.611Z,0.30
2018-06-28T22:33:01.111Z,0.10
2018-06-28T22:35:28.616Z,0.00
2018-06-28T22:37:56.190Z,0.20
2018-06-28T22:40:23.674Z,0.13
2018-06-28T22:42:51.191Z,0.23
2018-06-28T22:45:18.735Z,0.20
2018-06-28T22:47:46.222Z,0.20
2018-06-28T22:50:13.734Z,0.40
2018-06-28T22:52:42.131Z,0.40
2018-06-28T22:55:09.650Z,0.50
2018-06-28T22:57:37.187Z,0.53
2018-06-28T23:00:05.779Z,0.70
2018-06-28T23:02:33.283Z,0.90
2018-06-28T23:05:00.769Z,0.73
2018-06-28T23:07:28.345Z,0.80
2018-06-28T23:09:55.828Z,1.07
2018-06-28T23:12:23.302Z,1.03
2018-06-28T23:14:50.828Z,0.97
2018-06-28T23:17:18.311Z,0.93
2018-06-28T23:19:45.870Z,0.80
2018-06-28T23:22:27.668Z,0.73
2018-06-28T23:24:55.215Z,0.80
2018-06-28T23:27:22.698Z,1.20
2018-06-28T23:29:50.203Z,1.00
2018-06-28T23:32:17.727Z,0.80
2018-06-28T23:34:45.227Z,0.70
2018-06-28T23:37:12.856Z,0.70
2018-06-28T23:39:40.392Z,0.80
2018-06-28T23:42:07.876Z,0.80
2018-06-28T23:44:35.415Z,0.80
2018-06-28T23:47:02.903Z,0.60
2018-06-28T23:49:30.400Z,0.87
2018-06-28T23:51:57.942Z,0.90
2018-06-28T23:54:25.459Z,0.90
2018-06-28T23:56:53.160Z,0.90
2018-06-28T23:59:20.674Z,0.90
